Time;durP1;ratioP1;P1;durP2;ratioP2;P2;SDS_P1;SDS_P2;PMS_P1;PMS_P2;Temp;Humidity;BMP_temperature;BMP_pressure;BME280_temperature;BME280_humidity;BME280_pressure;Samples;Min_cycle;Max_cycle;Signal;HPM_P1;HPM_P2
2020/12/30 00:00:55;;;;;;;29.93;13.53;;;2.90;99.90;;;;;;5058881;28;20228;-78
2020/12/30 00:03:21;;;;;;;28.97;13.73;;;2.70;99.90;;;;;;5054254;28;20292;-78
2020/12/30 00:05:48;;;;;;;31.10;14.00;;;2.80;99.90;;;;;;5055759;28;20196;-79
2020/12/30 00:08:14;;;;;;;37.23;14.77;;;2.80;99.90;;;;;;5053013;28;20243;-79
2020/12/30 00:10:41;;;;;;;27.43;13.40;;;2.70;99.90;;;;;;5053013;28;20200;-79
2020/12/30 00:13:08;;;;;;;29.97;13.33;;;2.70;99.90;;;;;;5056512;28;20224;-79
2020/12/30 00:15:34;;;;;;;28.13;13.53;;;2.60;99.90;;;;;;5054034;28;20200;-79
2020/12/30 00:18:01;;;;;;;35.57;14.27;;;2.70;99.90;;;;;;5054749;28;20211;-78
2020/12/30 00:20:27;;;;;;;34.43;14.50;;;2.70;99.90;;;;;;5052335;28;20666;-78
2020/12/30 00:22:53;;;;;;;39.37;15.30;;;2.70;99.90;;;;;;5052905;28;20209;-78
2020/12/30 00:25:20;;;;;;;32.33;14.53;;;2.80;99.90;;;;;;5051829;28;20421;-79
2020/12/30 00:27:47;;;;;;;32.07;14.57;;;2.80;99.90;;;;;;5051199;28;20204;-78
2020/12/30 00:30:16;;;;;;;38.37;15.30;;;2.70;99.90;;;;;;5057924;28;20203;-79
2020/12/30 00:32:43;;;;;;;33.10;15.17;;;2.80;99.90;;;;;;5057428;28;20202;-79
2020/12/30 00:35:11;;;;;;;44.87;15.57;;;2.80;99.90;;;;;;5058813;28;20224;-79
2020/12/30 00:37:37;;;;;;;42.43;15.33;;;3.00;99.90;;;;;;5056602;28;20201;-78
2020/12/30 00:40:04;;;;;;;44.00;14.90;;;3.10;99.90;;;;;;5056676;28;20253;-79
2020/12/30 00:42:31;;;;;;;37.10;15.53;;;3.10;99.90;;;;;;5063632;28;20200;-79
2020/12/30 00:45:00;;;;;;;35.67;15.10;;;3.20;99.90;;;;;;5073693;28;20196;-78
2020/12/30 00:47:27;;;;;;;33.43;14.83;;;3.30;99.90;;;;;;5074706;28;20215;-79
2020/12/30 00:49:53;;;;;;;38.57;15.93;;;3.30;99.90;;;;;;5075275;28;20291;-79
2020/12/30 00:52:20;;;;;;;33.27;14.83;;;3.30;99.90;;;;;;5075059;28;20680;-79
2020/12/30 00:54:46;;;;;;;36.93;15.07;;;3.40;99.90;;;;;;5074854;28;20672;-79
2020/12/30 00:57:13;;;;;;;40.40;15.80;;;3.30;99.90;;;;;;5075113;28;20200;-78
2020/12/30 00:59:40;;;;;;;37.20;14.50;;;3.30;99.90;;;;;;5075165;28;20196;-78
2020/12/30 01:02:07;;;;;;;42.60;15.30;;;3.40;99.90;;;;;;5074055;28;20284;-79
2020/12/30 01:04:34;;;;;;;33.23;15.27;;;3.50;99.90;;;;;;5075099;28;20201;-79
2020/12/30 01:07:00;;;;;;;34.73;15.63;;;3.60;99.90;;;;;;5071953;28;20196;-79
2020/12/30 01:09:27;;;;;;;41.27;16.47;;;3.60;99.90;;;;;;5068219;28;20220;-79
2020/12/30 01:11:55;;;;;;;35.87;15.80;;;3.60;99.90;;;;;;5075464;28;20391;-79
2020/12/30 01:14:21;;;;;;;37.47;15.60;;;3.80;99.90;;;;;;5075467;28;20196;-79
2020/12/30 01:16:49;;;;;;;40.57;16.37;;;3.70;99.90;;;;;;5061494;28;20201;-79
2020/12/30 01:19:16;;;;;;;42.10;16.47;;;3.70;99.90;;;;;;5055150;28;20209;-79
2020/12/30 01:21:43;;;;;;;35.63;15.53;;;3.70;99.90;;;;;;5054653;28;20200;-79
2020/12/30 01:24:10;;;;;;;33.17;15.23;;;3.60;99.90;;;;;;5055303;28;20211;-79
2020/12/30 01:26:36;;;;;;;42.10;16.27;;;3.60;99.90;;;;;;5054837;28;20730;-78
2020/12/30 01:29:04;;;;;;;34.77;15.07;;;3.50;99.90;;;;;;5055188;28;20279;-79
2020/12/30 01:31:31;;;;;;;44.00;15.23;;;3.50;99.90;;;;;;5072442;28;20288;-78
2020/12/30 01:33:57;;;;;;;38.47;15.90;;;3.40;99.90;;;;;;5075543;28;20208;-79
2020/12/30 01:36:25;;;;;;;39.70;14.70;;;3.30;99.90;;;;;;5075431;28;20201;-78
2020/12/30 01:38:52;;;;;;;38.67;15.83;;;3.30;99.90;;;;;;5075403;28;20200;-79
2020/12/30 01:41:18;;;;;;;43.87;16.43;;;3.30;99.90;;;;;;5074320;28;20204;-78
2020/12/30 01:43:56;;;;;;;37.50;16.37;;;3.30;99.90;;;;;;5075059;28;20297;-78
2020/12/30 01:46:36;;;;;;;40.27;14.93;;;3.10;99.90;;;;;;5060498;28;20204;-78
2020/12/30 01:49:04;;;;;;;33.13;14.80;;;3.00;99.90;;;;;;5055599;28;20266;-78
2020/12/30 01:51:32;;;;;;;33.47;15.63;;;3.00;99.90;;;;;;5055001;28;20192;-78
2020/12/30 01:54:01;;;;;;;40.77;15.00;;;3.00;99.90;;;;;;5054968;28;20299;-78
2020/12/30 01:56:32;;;;;;;40.40;15.73;;;2.90;99.90;;;;;;5055292;28;20246;-78
2020/12/30 01:58:59;;;;;;;40.03;16.03;;;2.90;99.90;;;;;;5074966;28;20184;-78
2020/12/30 02:01:29;;;;;;;43.47;15.87;;;2.90;99.90;;;;;;5074747;28;20238;-78
2020/12/30 02:03:58;;;;;;;45.90;16.80;;;2.90;99.90;;;;;;5074907;28;20545;-78
2020/12/30 02:06:25;;;;;;;50.10;16.90;;;2.90;99.90;;;;;;5075032;28;20204;-79
2020/12/30 02:08:53;;;;;;;42.83;16.43;;;3.00;99.90;;;;;;5074626;28;20226;-78
2020/12/30 02:11:24;;;;;;;40.97;16.67;;;2.90;99.90;;;;;;5074715;28;20203;-78
2020/12/30 02:14:03;;;;;;;44.73;16.73;;;2.90;99.90;;;;;;5072804;28;20192;-79
2020/12/30 02:16:31;;;;;;;51.93;17.70;;;2.90;99.90;;;;;;5070004;28;20214;-79
2020/12/30 02:18:58;;;;;;;46.73;16.80;;;3.00;99.90;;;;;;5076353;28;20691;-79
2020/12/30 02:21:25;;;;;;;45.13;17.60;;;2.90;99.90;;;;;;5074901;28;20192;-79
2020/12/30 02:23:56;;;;;;;52.47;17.63;;;2.90;99.90;;;;;;5073768;28;20205;-78
2020/12/30 02:26:24;;;;;;;54.40;17.80;;;2.90;99.90;;;;;;5074057;28;20315;-79
2020/12/30 02:28:51;;;;;;;46.53;18.17;;;2.90;99.90;;;;;;5073918;28;20294;-78
2020/12/30 02:31:17;;;;;;;54.93;17.77;;;2.90;99.90;;;;;;5073511;28;20619;-79
2020/12/30 02:33:43;;;;;;;50.80;17.77;;;3.00;99.90;;;;;;5073641;28;20206;-79
2020/12/30 02:36:10;;;;;;;45.30;17.77;;;3.00;99.90;;;;;;5073634;28;20291;-79
2020/12/30 02:38:36;;;;;;;44.63;17.57;;;2.90;99.90;;;;;;5074070;28;20672;-79
2020/12/30 02:41:05;;;;;;;52.77;18.97;;;3.00;99.90;;;;;;5071836;28;20290;-79
2020/12/30 02:43:32;;;;;;;49.80;18.20;;;3.00;99.90;;;;;;5073190;28;20247;-78
2020/12/30 02:45:58;;;;;;;43.77;17.00;;;3.10;99.90;;;;;;5068194;28;20208;-78
2020/12/30 02:48:24;;;;;;;44.10;18.67;;;3.00;99.90;;;;;;5053295;28;20311;-79
2020/12/30 02:50:53;;;;;;;49.73;17.70;;;3.00;99.90;;;;;;5057918;28;20201;-79
2020/12/30 02:53:19;;;;;;;48.43;18.03;;;3.00;99.90;;;;;;5073897;28;20243;-78
2020/12/30 02:55:45;;;;;;;41.70;17.53;;;3.00;99.90;;;;;;5073403;28;20207;-78
2020/12/30 02:58:12;;;;;;;42.40;17.13;;;3.20;99.90;;;;;;5073500;28;20745;-79
2020/12/30 03:00:39;;;;;;;46.97;17.50;;;3.30;99.90;;;;;;5073372;28;20205;-77
2020/12/30 03:03:05;;;;;;;44.93;17.30;;;3.40;99.90;;;;;;5073164;28;20204;-78
2020/12/30 03:05:32;;;;;;;45.97;17.57;;;3.50;99.90;;;;;;5072809;28;20207;-79
2020/12/30 03:07:58;;;;;;;48.60;17.93;;;3.60;99.90;;;;;;5073335;28;20201;-78
2020/12/30 03:10:24;;;;;;;47.67;18.73;;;3.70;99.90;;;;;;5072850;28;20224;-78
2020/12/30 03:12:51;;;;;;;46.47;18.37;;;3.80;99.90;;;;;;5072732;28;20238;-79
2020/12/30 03:15:18;;;;;;;45.60;17.80;;;3.90;99.90;;;;;;5072644;28;20222;-78
2020/12/30 03:17:45;;;;;;;43.37;18.13;;;3.80;99.90;;;;;;5072114;28;20196;-79
2020/12/30 03:20:13;;;;;;;56.53;19.60;;;3.90;99.90;;;;;;5071900;28;20291;-79
2020/12/30 03:22:39;;;;;;;42.33;17.60;;;3.90;99.90;;;;;;5072361;28;20195;-79
2020/12/30 03:25:05;;;;;;;48.00;18.77;;;4.00;99.90;;;;;;5072555;28;20196;-79
2020/12/30 03:27:32;;;;;;;43.77;17.00;;;4.00;99.90;;;;;;5072315;28;20201;-79
2020/12/30 03:29:58;;;;;;;43.57;18.10;;;4.10;99.90;;;;;;5072157;28;20300;-79
2020/12/30 03:32:26;;;;;;;40.83;17.53;;;4.10;99.90;;;;;;5072570;28;20258;-79
2020/12/30 03:34:53;;;;;;;45.03;17.90;;;4.20;99.90;;;;;;5069973;28;20650;-78
2020/12/30 03:37:19;;;;;;;45.17;18.30;;;4.20;99.90;;;;;;5072250;28;20209;-78
2020/12/30 03:39:45;;;;;;;42.53;17.43;;;4.20;99.90;;;;;;5072098;28;20685;-79
2020/12/30 03:42:12;;;;;;;43.67;18.40;;;4.20;99.90;;;;;;5072248;28;20192;-79
2020/12/30 03:44:38;;;;;;;49.47;19.30;;;4.10;99.90;;;;;;5072317;28;20772;-79
2020/12/30 03:47:06;;;;;;;46.50;18.47;;;4.20;99.90;;;;;;5072753;28;20205;-78
2020/12/30 03:49:33;;;;;;;44.67;17.83;;;4.20;99.90;;;;;;5070133;28;20223;-78
2020/12/30 03:52:00;;;;;;;42.90;19.07;;;4.30;99.90;;;;;;5072539;28;20236;-79
2020/12/30 03:54:26;;;;;;;44.33;18.30;;;4.20;99.90;;;;;;5072491;28;20196;-78
2020/12/30 03:56:53;;;;;;;42.23;18.07;;;4.20;99.90;;;;;;5073118;28;20682;-79
2020/12/30 03:59:19;;;;;;;41.47;18.23;;;4.20;99.90;;;;;;5072362;28;20192;-79
2020/12/30 04:01:46;;;;;;;42.63;18.23;;;4.10;99.90;;;;;;5072264;28;20196;-79
2020/12/30 04:04:13;;;;;;;45.33;18.83;;;4.00;99.90;;;;;;5074028;28;20197;-79
2020/12/30 04:06:40;;;;;;;40.23;18.07;;;3.90;99.90;;;;;;5078756;28;20272;-79
2020/12/30 04:09:07;;;;;;;42.47;18.37;;;3.90;99.90;;;;;;5078685;28;20306;-79
2020/12/30 04:11:33;;;;;;;46.43;20.17;;;3.80;99.90;;;;;;5078794;28;20219;-79
2020/12/30 04:14:00;;;;;;;46.33;19.10;;;3.80;99.90;;;;;;5078957;28;20253;-79
2020/12/30 04:16:26;;;;;;;43.20;19.37;;;3.90;99.90;;;;;;5078781;28;20206;-79
2020/12/30 04:18:53;;;;;;;47.77;20.83;;;3.90;99.90;;;;;;5078460;28;20280;-79
2020/12/30 04:21:20;;;;;;;44.83;19.97;;;3.80;99.90;;;;;;5078836;28;20201;-79
2020/12/30 04:23:46;;;;;;;39.97;18.87;;;3.70;99.90;;;;;;5078276;28;20223;-79
2020/12/30 04:26:14;;;;;;;40.87;19.57;;;3.80;99.90;;;;;;5078466;28;20195;-79
2020/12/30 04:28:40;;;;;;;45.33;21.03;;;3.80;99.90;;;;;;5078116;28;20330;-79
2020/12/30 04:31:09;;;;;;;43.13;20.10;;;3.80;99.90;;;;;;5078578;28;20200;-79
2020/12/30 04:33:36;;;;;;;47.97;20.00;;;4.00;99.90;;;;;;5078928;28;20319;-79
2020/12/30 04:36:03;;;;;;;43.47;19.70;;;4.10;99.90;;;;;;5078862;28;20239;-79
2020/12/30 04:38:31;;;;;;;47.00;19.57;;;4.10;99.90;;;;;;5078685;28;20203;-79
2020/12/30 04:40:58;;;;;;;46.53;19.90;;;4.00;99.90;;;;;;5078841;28;20212;-79
2020/12/30 04:43:27;;;;;;;42.70;19.13;;;3.80;99.90;;;;;;5078805;28;20209;-79
2020/12/30 04:45:54;;;;;;;43.37;20.47;;;3.70;99.90;;;;;;5078744;28;20205;-79
2020/12/30 04:48:21;;;;;;;45.30;19.23;;;3.60;99.90;;;;;;5078819;28;20203;-79
2020/12/30 04:50:48;;;;;;;44.70;20.00;;;3.60;99.90;;;;;;5079021;28;20576;-78
2020/12/30 04:53:14;;;;;;;44.57;19.43;;;3.50;99.90;;;;;;5079083;28;20201;-79
2020/12/30 04:55:42;;;;;;;44.83;20.13;;;3.40;99.90;;;;;;5078860;28;20623;-79
2020/12/30 04:58:09;;;;;;;39.03;19.23;;;3.40;99.90;;;;;;5079264;28;20274;-79
2020/12/30 05:00:37;;;;;;;37.87;18.10;;;3.50;99.90;;;;;;5078994;28;20204;-79
2020/12/30 05:03:07;;;;;;;39.10;18.60;;;3.50;99.90;;;;;;5078465;28;20697;-80
2020/12/30 05:05:35;;;;;;;40.90;18.37;;;3.50;99.90;;;;;;5078679;28;20678;-79
2020/12/30 05:08:01;;;;;;;44.67;20.10;;;3.50;99.90;;;;;;5078222;28;20672;-79
2020/12/30 05:10:28;;;;;;;45.57;19.37;;;3.50;99.90;;;;;;5078520;28;20364;-79
2020/12/30 05:12:54;;;;;;;43.03;19.47;;;3.60;99.90;;;;;;5078558;28;20201;-79
2020/12/30 05:15:21;;;;;;;40.10;18.90;;;3.60;99.90;;;;;;5077483;28;20200;-78
2020/12/30 05:17:51;;;;;;;40.70;18.67;;;3.70;99.90;;;;;;5074431;28;20204;-79
2020/12/30 05:20:18;;;;;;;40.37;18.30;;;3.70;99.90;;;;;;5075170;28;20211;-79
2020/12/30 05:22:44;;;;;;;38.47;18.53;;;3.70;99.90;;;;;;5075012;28;20209;-79
2020/12/30 05:25:12;;;;;;;45.67;19.30;;;3.70;99.90;;;;;;5075255;28;20196;-79
2020/12/30 05:27:38;;;;;;;40.30;19.53;;;3.60;99.90;;;;;;5075239;28;20205;-79
2020/12/30 05:30:07;;;;;;;42.60;18.17;;;3.60;99.90;;;;;;5075111;28;20227;-80
2020/12/30 05:32:37;;;;;;;39.67;17.93;;;3.70;99.90;;;;;;5074939;28;20204;-79
2020/12/30 05:35:05;;;;;;;39.03;17.63;;;3.70;99.90;;;;;;5075302;28;20213;-79
2020/12/30 05:37:33;;;;;;;40.70;18.47;;;3.70;99.90;;;;;;5074901;28;20221;-79
2020/12/30 05:40:00;;;;;;;35.27;17.70;;;3.70;99.90;;;;;;5074982;28;20200;-79
2020/12/30 05:42:26;;;;;;;38.43;17.03;;;3.80;99.90;;;;;;5075000;28;20204;-79
2020/12/30 05:44:54;;;;;;;33.90;17.03;;;3.80;99.90;;;;;;5074696;28;20253;-79
2020/12/30 05:47:22;;;;;;;35.73;16.80;;;3.70;99.90;;;;;;5074702;28;20204;-79
2020/12/30 05:49:50;;;;;;;40.30;18.33;;;3.80;99.90;;;;;;5074491;28;20225;-80
2020/12/30 05:52:20;;;;;;;33.37;16.30;;;3.70;99.90;;;;;;5074839;28;20240;-79
2020/12/30 05:54:54;;;;;;;34.13;16.20;;;3.60;99.90;;;;;;5074723;28;20560;-79
2020/12/30 05:57:25;;;;;;;33.73;16.77;;;3.60;99.90;;;;;;5074753;28;20293;-79
2020/12/30 05:59:53;;;;;;;31.17;16.43;;;3.50;99.90;;;;;;5074545;28;20247;-79
2020/12/30 06:02:25;;;;;;;33.87;17.13;;;3.60;99.90;;;;;;5072249;28;20209;-80
2020/12/30 06:04:53;;;;;;;33.97;16.33;;;3.60;99.90;;;;;;5074135;28;20657;-80
2020/12/30 06:07:20;;;;;;;36.50;17.13;;;3.50;99.90;;;;;;5073981;28;20200;-79
2020/12/30 06:09:54;;;;;;;36.27;16.13;;;3.50;99.90;;;;;;5053933;28;20233;-80
2020/12/30 06:12:25;;;;;;;34.53;16.20;;;3.50;99.90;;;;;;5054085;28;20204;-79
2020/12/30 06:14:51;;;;;;;31.73;15.20;;;3.50;99.90;;;;;;5066518;28;20208;-79
2020/12/30 06:17:30;;;;;;;30.33;16.17;;;3.60;99.90;;;;;;5073019;28;20200;-79
2020/12/30 06:19:58;;;;;;;36.00;16.37;;;3.70;99.90;;;;;;5053861;28;20574;-79
2020/12/30 06:22:26;;;;;;;33.03;15.87;;;3.80;99.90;;;;;;5052859;28;20254;-79
2020/12/30 06:24:54;;;;;;;38.67;16.63;;;3.70;99.90;;;;;;5072977;28;20213;-79
2020/12/30 06:27:22;;;;;;;32.37;15.77;;;3.80;99.90;;;;;;5064711;28;20211;-79
2020/12/30 06:29:52;;;;;;;34.93;16.20;;;3.80;99.90;;;;;;5053897;28;20224;-79
2020/12/30 06:32:26;;;;;;;30.87;16.33;;;3.80;99.90;;;;;;5053503;28;20287;-79
2020/12/30 06:34:52;;;;;;;30.60;15.83;;;3.90;99.90;;;;;;5053707;28;20247;-79
2020/12/30 06:37:30;;;;;;;31.40;15.60;;;4.00;99.90;;;;;;5053669;28;20201;-80
2020/12/30 06:40:25;;;;;;;29.97;15.50;;;4.00;99.90;;;;;;5053474;28;20559;-79
2020/12/30 06:42:56;;;;;;;33.30;15.87;;;4.00;99.90;;;;;;5053480;28;20275;-79
2020/12/30 06:45:49;;;;;;;37.23;15.57;;;4.10;99.90;;;;;;5053374;28;20231;-79
2020/12/30 06:48:16;;;;;;;30.20;15.43;;;4.00;99.90;;;;;;5053061;28;20198;-79
2020/12/30 06:50:42;;;;;;;31.77;15.57;;;4.00;99.90;;;;;;5053386;28;20261;-79
2020/12/30 06:53:25;;;;;;;33.03;14.77;;;4.10;99.90;;;;;;5053155;28;20568;-79
2020/12/30 06:55:52;;;;;;;30.53;15.90;;;4.10;99.90;;;;;;5051750;28;20269;-78
2020/12/30 06:58:43;;;;;;;31.73;15.40;;;4.10;99.90;;;;;;5053051;28;20210;-80
2020/12/30 07:01:10;;;;;;;32.33;15.57;;;4.10;99.90;;;;;;5072592;28;20200;-80
2020/12/30 07:03:36;;;;;;;29.80;14.73;;;3.90;99.90;;;;;;5073051;28;20200;-80
2020/12/30 07:06:23;;;;;;;32.07;14.97;;;3.90;99.90;;;;;;5073142;28;20214;-80
2020/12/30 07:08:50;;;;;;;28.07;14.33;;;3.80;99.90;;;;;;5073403;28;20224;-79
2020/12/30 07:11:38;;;;;;;30.83;14.67;;;3.70;99.90;;;;;;5066797;28;20212;-81
2020/12/30 07:14:06;;;;;;;29.50;14.47;;;3.70;99.90;;;;;;5058892;28;20197;-81
2020/12/30 07:16:34;;;;;;;28.60;15.43;;;3.70;99.90;;;;;;5072939;28;20685;-80
2020/12/30 07:19:00;;;;;;;28.80;14.50;;;3.70;99.90;;;;;;5072553;28;20231;-80
2020/12/30 07:21:27;;;;;;;29.13;14.63;;;3.80;99.90;;;;;;5072261;28;20697;-80
2020/12/30 07:23:56;;;;;;;28.67;14.53;;;3.80;99.90;;;;;;5072314;28;20606;-80
2020/12/30 07:26:23;;;;;;;28.40;14.27;;;3.80;99.90;;;;;;5064712;28;20213;-80
2020/12/30 07:28:49;;;;;;;27.67;14.80;;;3.90;99.90;;;;;;5052894;28;20201;-80
2020/12/30 07:31:17;;;;;;;25.23;14.20;;;3.90;99.90;;;;;;5052840;28;20218;-80
2020/12/30 07:33:44;;;;;;;31.90;15.27;;;3.90;99.90;;;;;;5052336;28;20200;-81
2020/12/30 07:36:10;;;;;;;27.70;14.63;;;3.90;99.90;;;;;;5052349;28;20205;-80
2020/12/30 07:38:37;;;;;;;32.93;15.10;;;3.90;99.90;;;;;;5052218;28;20204;-81
2020/12/30 07:41:08;;;;;;;31.40;14.80;;;4.00;99.90;;;;;;5052349;28;20420;-80
2020/12/30 07:43:48;;;;;;;31.13;14.53;;;4.00;99.90;;;;;;5052622;28;20202;-81
2020/12/30 07:46:15;;;;;;;29.97;15.10;;;4.00;99.90;;;;;;5061005;28;20205;-81
2020/12/30 07:48:42;;;;;;;29.57;14.33;;;4.00;99.90;;;;;;5071967;28;20204;-82
2020/12/30 07:51:08;;;;;;;26.40;13.73;;;4.10;99.90;;;;;;5072335;28;20213;-82
2020/12/30 07:53:35;;;;;;;25.90;13.87;;;4.10;99.90;;;;;;5070183;28;20203;-81
2020/12/30 07:56:01;;;;;;;27.30;14.57;;;4.10;99.90;;;;;;5067827;28;20200;-81
2020/12/30 07:58:28;;;;;;;33.23;15.13;;;4.10;99.90;;;;;;5065924;28;20207;-81
2020/12/30 08:00:55;;;;;;;30.37;13.97;;;4.20;99.90;;;;;;5071815;28;20204;-82
2020/12/30 08:03:22;;;;;;;30.80;15.33;;;4.20;99.90;;;;;;5072048;28;20207;-79
2020/12/30 08:05:50;;;;;;;32.73;15.57;;;4.30;99.90;;;;;;5071981;28;20201;-84
2020/12/30 08:08:17;;;;;;;34.20;15.50;;;4.30;99.90;;;;;;5071880;28;20208;-82
2020/12/30 08:10:44;;;;;;;32.17;15.17;;;4.30;99.90;;;;;;5071299;28;20754;-81
2020/12/30 08:13:11;;;;;;;31.47;16.37;;;4.40;99.90;;;;;;5072086;28;20223;-80
2020/12/30 08:15:50;;;;;;;29.80;15.43;;;4.40;99.90;;;;;;5072066;28;20196;-82
2020/12/30 08:18:16;;;;;;;29.03;15.00;;;4.30;99.90;;;;;;5071923;28;20214;-82
2020/12/30 08:20:43;;;;;;;35.50;15.97;;;4.40;99.90;;;;;;5071387;28;20214;-83
2020/12/30 08:23:09;;;;;;;40.33;16.63;;;4.40;99.90;;;;;;5071845;28;20201;-82
2020/12/30 08:25:35;;;;;;;33.50;16.23;;;4.40;99.90;;;;;;5072487;28;20300;-82
2020/12/30 08:28:04;;;;;;;47.90;16.70;;;4.40;99.90;;;;;;5072714;28;20205;-82
2020/12/30 08:30:33;;;;;;;35.60;16.13;;;4.30;99.90;;;;;;5072371;28;20346;-81
2020/12/30 08:33:08;;;;;;;36.63;16.47;;;4.40;99.90;;;;;;5072991;28;20254;-82
2020/12/30 08:35:39;;;;;;;36.33;16.93;;;4.30;99.90;;;;;;5074043;28;20196;-81
2020/12/30 08:38:10;;;;;;;31.13;15.27;;;4.40;99.90;;;;;;5072363;28;20538;-82
2020/12/30 08:40:38;;;;;;;35.57;16.20;;;4.50;99.90;;;;;;5071291;28;20243;-82
2020/12/30 08:43:20;;;;;;;39.37;18.07;;;4.40;99.90;;;;;;5071615;28;20213;-81
2020/12/30 08:46:07;;;;;;;41.63;17.00;;;4.40;99.90;;;;;;5071406;28;20658;-81
2020/12/30 08:48:44;;;;;;;35.63;15.93;;;4.50;99.90;;;;;;5071595;28;20204;-81
2020/12/30 08:51:11;;;;;;;36.20;16.03;;;4.50;99.90;;;;;;5073273;28;20197;-81
2020/12/30 08:53:38;;;;;;;39.03;16.43;;;4.50;99.90;;;;;;5074847;28;20399;-82
2020/12/30 08:56:06;;;;;;;33.93;16.57;;;4.50;99.90;;;;;;5075337;28;20295;-81
2020/12/30 08:58:32;;;;;;;39.43;16.97;;;4.50;99.90;;;;;;5074794;28;20677;-81
2020/12/30 09:00:59;;;;;;;33.27;15.63;;;4.50;99.90;;;;;;5075065;28;20304;-82
2020/12/30 09:03:27;;;;;;;39.87;17.17;;;4.50;99.90;;;;;;5075226;28;20201;-81
2020/12/30 09:05:56;;;;;;;34.30;16.73;;;4.50;99.90;;;;;;5075358;28;20653;-81
2020/12/30 09:08:24;;;;;;;34.57;15.73;;;4.40;99.90;;;;;;5075180;28;20201;-81
2020/12/30 09:10:51;;;;;;;42.07;16.87;;;4.40;99.90;;;;;;5074747;28;20345;-81
2020/12/30 09:13:19;;;;;;;38.93;17.70;;;4.30;99.90;;;;;;5074865;28;20239;-80
2020/12/30 09:15:47;;;;;;;36.13;17.07;;;4.30;99.90;;;;;;5068380;28;20295;-80
2020/12/30 09:18:14;;;;;;;36.77;17.10;;;4.30;99.90;;;;;;5054344;28;20209;-80
2020/12/30 09:20:41;;;;;;;40.97;16.27;;;4.20;99.90;;;;;;5054382;28;20796;-81
2020/12/30 09:23:09;;;;;;;42.17;17.67;;;4.10;99.90;;;;;;5054409;28;20292;-82
2020/12/30 09:25:39;;;;;;;40.47;17.50;;;4.20;99.90;;;;;;5054236;28;20317;-81
2020/12/30 09:28:14;;;;;;;34.97;16.53;;;4.20;99.90;;;;;;5054641;28;20198;-81
2020/12/30 09:30:41;;;;;;;39.47;16.57;;;4.40;99.90;;;;;;5054246;28;20228;-82
2020/12/30 09:33:11;;;;;;;31.40;15.70;;;4.40;99.90;;;;;;5054356;28;20201;-82
2020/12/30 09:35:38;;;;;;;36.77;16.90;;;4.30;99.90;;;;;;5054059;28;20617;-81
2020/12/30 09:38:04;;;;;;;42.83;17.77;;;4.50;99.90;;;;;;5054573;28;20204;-81
2020/12/30 09:40:40;;;;;;;39.77;16.17;;;4.60;99.90;;;;;;5054702;28;20206;-81
2020/12/30 09:43:12;;;;;;;41.10;17.23;;;4.60;99.90;;;;;;5062939;28;20215;-81
2020/12/30 09:45:39;;;;;;;41.37;17.20;;;4.70;99.90;;;;;;5073625;28;20201;-81
2020/12/30 09:48:11;;;;;;;35.10;17.23;;;4.80;99.90;;;;;;5073913;28;20205;-81
2020/12/30 09:50:38;;;;;;;32.90;16.53;;;4.90;99.90;;;;;;5074104;28;20279;-82
2020/12/30 09:53:04;;;;;;;41.73;16.90;;;5.00;99.90;;;;;;5074207;28;20300;-81
2020/12/30 09:55:31;;;;;;;33.80;17.20;;;5.00;99.90;;;;;;5073842;28;20205;-81
2020/12/30 09:57:58;;;;;;;36.67;17.13;;;5.00;99.90;;;;;;5073085;28;20283;-81
2020/12/30 10:00:24;;;;;;;36.70;16.73;;;5.00;99.90;;;;;;5073920;28;20254;-81
2020/12/30 10:02:51;;;;;;;39.37;16.87;;;5.10;99.90;;;;;;5068965;28;20570;-81
2020/12/30 10:05:17;;;;;;;31.10;15.53;;;5.20;99.90;;;;;;5067280;28;20232;-81
2020/12/30 10:07:43;;;;;;;33.40;14.87;;;5.40;99.90;;;;;;5056924;28;20582;-83
2020/12/30 10:10:10;;;;;;;35.00;16.00;;;5.50;99.90;;;;;;5055751;28;20693;-82
2020/12/30 10:12:39;;;;;;;35.20;16.13;;;5.50;99.90;;;;;;5065808;28;20258;-80
2020/12/30 10:15:06;;;;;;;33.60;15.43;;;5.60;99.90;;;;;;5067110;28;20212;-81
2020/12/30 10:17:32;;;;;;;30.57;16.07;;;5.60;99.90;;;;;;5065984;28;20201;-81
2020/12/30 10:19:59;;;;;;;36.40;15.87;;;5.60;99.90;;;;;;5073335;28;20305;-81
2020/12/30 10:22:25;;;;;;;35.57;16.17;;;5.60;99.90;;;;;;5054796;28;20227;-81
2020/12/30 10:24:51;;;;;;;30.63;15.90;;;5.60;99.90;;;;;;5059261;28;20208;-80
2020/12/30 10:27:18;;;;;;;28.37;15.00;;;5.60;99.90;;;;;;5072532;28;20203;-81
2020/12/30 10:29:45;;;;;;;32.03;14.67;;;5.60;99.90;;;;;;5067016;28;20242;-81
2020/12/30 10:32:12;;;;;;;27.80;14.50;;;5.70;99.90;;;;;;5056541;28;20205;-81
2020/12/30 10:34:38;;;;;;;26.07;13.60;;;5.70;99.90;;;;;;5053608;28;20198;-81
2020/12/30 10:37:05;;;;;;;28.67;13.77;;;5.70;99.90;;;;;;5063791;28;20215;-81
2020/12/30 10:39:32;;;;;;;28.87;13.87;;;5.70;99.90;;;;;;5063552;28;20561;-81
2020/12/30 10:41:59;;;;;;;27.70;13.80;;;5.70;99.90;;;;;;5063265;28;20697;-83
2020/12/30 10:44:26;;;;;;;23.90;13.10;;;5.80;99.90;;;;;;5078537;28;20211;-81
2020/12/30 10:46:53;;;;;;;20.47;12.40;;;5.90;99.90;;;;;;5071490;28;20201;-81
2020/12/30 10:49:20;;;;;;;27.73;12.67;;;5.90;99.90;;;;;;5068516;28;20227;-81
2020/12/30 10:51:47;;;;;;;24.00;12.47;;;6.10;99.90;;;;;;5062993;28;20738;-80
2020/12/30 10:54:13;;;;;;;23.27;12.93;;;6.10;99.90;;;;;;5067330;28;20211;-80
2020/12/30 10:56:39;;;;;;;23.77;13.20;;;6.10;99.90;;;;;;5072581;28;21024;-81
2020/12/30 10:59:06;;;;;;;27.00;12.47;;;6.00;99.90;;;;;;5052841;28;20201;-81
2020/12/30 11:01:32;;;;;;;21.90;11.73;;;6.00;99.90;;;;;;5052950;28;20219;-81
2020/12/30 11:03:59;;;;;;;20.20;11.27;;;6.10;99.90;;;;;;5059733;28;20213;-81
2020/12/30 11:06:26;;;;;;;23.90;12.00;;;6.20;99.90;;;;;;5069378;28;20201;-81
2020/12/30 11:08:52;;;;;;;19.33;10.97;;;6.40;99.90;;;;;;5058506;28;20200;-81
2020/12/30 11:11:18;;;;;;;23.23;11.40;;;6.40;99.90;;;;;;5062878;28;20238;-81
2020/12/30 11:13:45;;;;;;;17.87;10.93;;;6.50;99.90;;;;;;5071792;28;20257;-81
2020/12/30 11:16:11;;;;;;;22.27;11.87;;;6.60;99.90;;;;;;5055659;28;20652;-81
2020/12/30 11:18:37;;;;;;;30.50;11.10;;;6.50;99.90;;;;;;5056823;28;20204;-82
2020/12/30 11:21:04;;;;;;;22.87;11.47;;;6.40;99.90;;;;;;5066324;28;20201;-82
2020/12/30 11:23:31;;;;;;;20.53;10.70;;;6.30;99.90;;;;;;5052167;28;20205;-81
2020/12/30 11:25:57;;;;;;;21.17;10.53;;;6.30;99.90;;;;;;5054430;28;20202;-81
2020/12/30 11:28:23;;;;;;;19.73;11.30;;;6.30;99.90;;;;;;5061384;28;20210;-81
2020/12/30 11:30:50;;;;;;;22.20;11.40;;;6.30;99.90;;;;;;5067595;28;20222;-81
2020/12/30 11:33:16;;;;;;;20.03;11.43;;;6.30;99.90;;;;;;5071453;28;20684;-81
2020/12/30 11:35:44;;;;;;;19.07;10.50;;;6.40;99.90;;;;;;5061048;28;20295;-81
2020/12/30 11:38:11;;;;;;;20.90;10.43;;;6.50;99.90;;;;;;5060244;28;20208;-81
2020/12/30 11:40:38;;;;;;;19.20;9.27;;;6.60;99.90;;;;;;5057624;28;20220;-82
2020/12/30 11:43:05;;;;;;;22.43;9.40;;;6.80;99.90;;;;;;5062193;28;20212;-81
2020/12/30 11:45:31;;;;;;;17.63;9.40;;;6.90;99.90;;;;;;5061857;28;20214;-80
2020/12/30 11:47:59;;;;;;;17.37;9.57;;;6.90;99.90;;;;;;5062483;28;20201;-81
2020/12/30 11:50:25;;;;;;;17.80;8.90;;;7.00;99.90;;;;;;5067298;28;20765;-81
2020/12/30 11:52:52;;;;;;;19.57;10.00;;;7.00;99.90;;;;;;5069858;28;20200;-80
2020/12/30 11:55:19;;;;;;;14.80;9.60;;;6.90;99.90;;;;;;5057003;28;20206;-81
2020/12/30 11:57:45;;;;;;;20.53;10.23;;;6.90;99.90;;;;;;5064926;28;20568;-81
2020/12/30 12:00:11;;;;;;;16.20;8.73;;;6.90;99.90;;;;;;5064888;28;20201;-81
2020/12/30 12:02:38;;;;;;;17.47;9.13;;;6.90;99.90;;;;;;5056227;28;20212;-81
2020/12/30 12:05:09;;;;;;;17.03;9.27;;;6.70;99.90;;;;;;5067235;28;20203;-80
2020/12/30 12:07:36;;;;;;;18.27;8.90;;;6.70;99.90;;;;;;5065342;28;20212;-83
2020/12/30 12:10:03;;;;;;;17.50;9.77;;;6.60;99.90;;;;;;5063114;28;20222;-82
2020/12/30 12:12:30;;;;;;;17.10;8.80;;;6.50;99.90;;;;;;5061880;28;20487;-80
2020/12/30 12:14:56;;;;;;;14.23;9.50;;;6.40;99.90;;;;;;5070059;28;20235;-81
2020/12/30 12:17:23;;;;;;;15.13;8.80;;;6.30;99.90;;;;;;5065826;28;20205;-81
2020/12/30 12:19:49;;;;;;;14.10;8.87;;;6.30;99.90;;;;;;5068523;28;20217;-81
2020/12/30 12:22:15;;;;;;;15.03;8.87;;;6.20;99.90;;;;;;5071238;28;20196;-81
2020/12/30 12:24:42;;;;;;;13.60;8.50;;;6.20;99.90;;;;;;5074350;28;20284;-80
2020/12/30 12:27:08;;;;;;;15.83;8.93;;;6.20;99.90;;;;;;5071254;28;20208;-82
2020/12/30 12:29:48;;;;;;;14.63;8.20;;;6.20;99.90;;;;;;5077247;28;20304;-81
2020/12/30 12:32:16;;;;;;;16.00;8.77;;;6.10;99.90;;;;;;5068985;28;20198;-80
2020/12/30 12:34:44;;;;;;;12.47;7.83;;;6.20;99.90;;;;;;5075190;28;20197;-81
2020/12/30 12:37:12;;;;;;;14.97;7.87;;;6.30;99.90;;;;;;5067441;28;20284;-81
2020/12/30 12:39:40;;;;;;;11.83;7.63;;;6.30;99.90;;;;;;5072873;28;20535;-81
2020/12/30 12:42:07;;;;;;;12.77;7.67;;;6.20;99.90;;;;;;5072083;28;20209;-81